createdAt,value
2023-04-27T00:02:07.914Z,99.90
2023-04-27T00:04:35.727Z,99.90
2023-04-27T00:07:03.204Z,99.90
2023-04-27T00:09:30.413Z,99.90
2023-04-27T00:11:57.703Z,99.90
2023-04-27T00:14:28.382Z,99.90
2023-04-27T00:16:55.913Z,99.90
2023-04-27T00:19:23.488Z,99.90
2023-04-27T00:21:50.747Z,99.90
2023-04-27T00:24:17.919Z,99.90
2023-04-27T00:26:45.218Z,99.90
2023-04-27T00:29:14.200Z,99.90
2023-04-27T00:31:41.649Z,99.90
2023-04-27T00:34:08.899Z,99.90
2023-04-27T00:36:36.182Z,99.90
2023-04-27T00:39:03.570Z,99.90
2023-04-27T00:41:34.042Z,99.90
2023-04-27T00:44:01.252Z,99.90
2023-04-27T00:46:28.858Z,99.90
2023-04-27T00:48:56.262Z,99.90
2023-04-27T00:51:27.754Z,99.90
2023-04-27T00:53:59.038Z,99.90
2023-04-27T00:56:26.293Z,99.90
2023-04-27T00:59:02.698Z,99.90
2023-04-27T01:01:30.352Z,99.90
2023-04-27T01:03:58.002Z,99.90
2023-04-27T01:06:27.460Z,99.90
2023-04-27T01:08:56.967Z,99.90
2023-04-27T01:11:24.421Z,99.90
2023-04-27T01:13:53.499Z,99.90
2023-04-27T01:16:21.056Z,99.90
2023-04-27T01:18:48.355Z,99.90
2023-04-27T01:21:15.617Z,99.90
2023-04-27T01:23:42.937Z,99.90
2023-04-27T01:26:13.631Z,99.90
2023-04-27T01:28:47.560Z,99.90
2023-04-27T01:31:15.258Z,99.90
2023-04-27T01:33:42.540Z,99.90
2023-04-27T01:36:09.883Z,99.90
2023-04-27T01:38:39.454Z,99.90
2023-04-27T01:41:08.908Z,99.90
2023-04-27T01:43:39.546Z,99.90
2023-04-27T01:46:11.995Z,99.90
2023-04-27T01:48:42.338Z,99.90
2023-04-27T01:51:11.411Z,99.90
2023-04-27T01:53:41.575Z,99.90
2023-04-27T01:56:10.360Z,99.90
2023-04-27T01:58:37.828Z,99.90
2023-04-27T02:01:09.307Z,99.90
2023-04-27T02:03:36.815Z,99.90
2023-04-27T02:06:06.123Z,99.90
2023-04-27T02:08:38.491Z,99.90
2023-04-27T02:11:09.041Z,99.90
2023-04-27T02:13:36.399Z,99.90
2023-04-27T02:16:06.512Z,99.90
2023-04-27T02:18:38.969Z,99.90
2023-04-27T02:21:10.096Z,99.90
2023-04-27T02:23:39.866Z,99.90
2023-04-27T02:26:07.134Z,99.90
2023-04-27T02:28:38.516Z,99.90
2023-04-27T02:31:08.736Z,99.90
2023-04-27T02:33:36.039Z,99.90
2023-04-27T02:36:05.838Z,99.90
2023-04-27T02:38:39.280Z,99.90
2023-04-27T02:41:07.687Z,99.90
2023-04-27T02:43:35.029Z,99.90
2023-04-27T02:46:08.361Z,99.90
2023-04-27T02:48:35.904Z,99.90
2023-04-27T02:51:04.942Z,99.90
2023-04-27T02:53:32.281Z,99.90
2023-04-27T02:55:59.520Z,99.90
2023-04-27T02:58:29.320Z,99.90
2023-04-27T03:00:59.069Z,99.90
2023-04-27T03:03:26.511Z,99.90
2023-04-27T03:05:58.621Z,99.90
2023-04-27T03:08:26.307Z,99.90
2023-04-27T03:10:57.237Z,99.90
2023-04-27T03:13:27.695Z,99.90
2023-04-27T03:15:55.050Z,99.90
2023-04-27T03:18:22.406Z,99.90
2023-04-27T03:20:49.735Z,99.90
2023-04-27T03:23:19.713Z,99.90
2023-04-27T03:25:49.401Z,99.90
2023-04-27T03:28:19.771Z,99.90
2023-04-27T03:30:49.374Z,99.90
2023-04-27T03:33:18.988Z,99.90
2023-04-27T03:35:54.423Z,99.90
2023-04-27T03:38:21.696Z,99.90
2023-04-27T03:40:49.216Z,99.90
2023-04-27T03:43:16.638Z,99.90
2023-04-27T03:45:46.477Z,99.90
2023-04-27T03:48:14.161Z,99.90
2023-04-27T03:50:41.644Z,99.90
2023-04-27T03:53:12.048Z,99.90
2023-04-27T03:55:40.200Z,99.90
2023-04-27T03:58:08.379Z,99.90
2023-04-27T04:00:38.307Z,99.90
2023-04-27T04:03:06.813Z,99.90
2023-04-27T04:05:34.555Z,99.90
2023-04-27T04:08:01.858Z,99.90
2023-04-27T04:10:29.103Z,99.90
2023-04-27T04:12:58.677Z,99.90
2023-04-27T04:15:26.953Z,99.90
2023-04-27T04:17:54.645Z,99.90
2023-04-27T04:20:22.292Z,99.90
2023-04-27T04:22:49.299Z,99.90
2023-04-27T04:25:16.365Z,99.90
2023-04-27T04:27:43.379Z,99.90
2023-04-27T04:30:11.405Z,99.90
2023-04-27T04:32:38.493Z,99.90
2023-04-27T04:35:07.047Z,99.90
2023-04-27T04:37:35.301Z,99.90
2023-04-27T04:40:10.456Z,99.90
2023-04-27T04:42:38.311Z,99.90
2023-04-27T04:45:07.225Z,99.90
2023-04-27T04:47:35.199Z,99.90
2023-04-27T04:50:02.464Z,99.90
2023-04-27T04:52:31.123Z,99.90
2023-04-27T04:54:58.149Z,99.90
2023-04-27T04:57:25.127Z,99.90
2023-04-27T04:59:53.067Z,99.90
2023-04-27T05:02:20.084Z,99.90
2023-04-27T05:04:47.224Z,99.90
2023-04-27T05:07:15.127Z,99.90
2023-04-27T05:09:42.638Z,99.90
2023-04-27T05:12:09.716Z,99.90
2023-04-27T05:14:36.738Z,99.90
2023-04-27T05:17:03.714Z,99.90
2023-04-27T05:19:31.117Z,99.90
2023-04-27T05:21:58.573Z,99.90
2023-04-27T05:24:26.209Z,99.90
2023-04-27T05:26:53.528Z,99.90
2023-04-27T05:29:21.054Z,99.90
2023-04-27T05:31:48.087Z,99.90
2023-04-27T05:34:15.307Z,99.90
2023-04-27T05:36:42.443Z,99.90
2023-04-27T05:39:09.672Z,99.90
2023-04-27T05:41:36.659Z,99.90
2023-04-27T05:44:03.659Z,99.90
2023-04-27T05:46:30.700Z,99.90
2023-04-27T05:48:57.743Z,99.90
2023-04-27T05:51:24.810Z,99.90
2023-04-27T05:53:57.142Z,99.90
2023-04-27T05:56:24.227Z,99.90
2023-04-27T05:58:51.767Z,99.90
2023-04-27T06:01:18.762Z,99.90
2023-04-27T06:03:45.953Z,99.90
2023-04-27T06:06:13.038Z,99.90
2023-04-27T06:08:40.235Z,99.90
2023-04-27T06:11:07.314Z,99.90
2023-04-27T06:13:34.297Z,99.90
2023-04-27T06:16:01.361Z,99.90
2023-04-27T06:18:28.445Z,99.90
2023-04-27T06:20:59.975Z,99.90
2023-04-27T06:23:27.169Z,99.90
2023-04-27T06:25:54.153Z,99.90
2023-04-27T06:28:21.188Z,99.90
2023-04-27T06:30:48.191Z,99.90
2023-04-27T06:33:15.413Z,99.90
2023-04-27T06:35:43.649Z,99.90
2023-04-27T06:38:11.609Z,99.90
2023-04-27T06:40:38.638Z,99.90
2023-04-27T06:43:05.693Z,99.90
2023-04-27T06:45:32.741Z,99.90
2023-04-27T06:47:59.798Z,99.90
2023-04-27T06:50:26.815Z,99.90
2023-04-27T06:52:53.779Z,99.90
2023-04-27T06:55:20.872Z,99.90
2023-04-27T06:57:47.911Z,99.90
2023-04-27T07:00:15.085Z,99.90
2023-04-27T07:02:42.199Z,99.90
2023-04-27T07:05:09.384Z,99.90
2023-04-27T07:07:36.511Z,99.90
2023-04-27T07:10:04.026Z,99.90
2023-04-27T07:12:31.029Z,99.90
2023-04-27T07:14:58.044Z,99.90
2023-04-27T07:17:25.126Z,99.90
2023-04-27T07:19:54.490Z,99.90
2023-04-27T07:22:21.605Z,99.90
2023-04-27T07:24:48.626Z,99.90
2023-04-27T07:27:18.867Z,99.90
2023-04-27T07:29:45.945Z,99.90
2023-04-27T07:32:13.058Z,99.90
2023-04-27T07:34:51.747Z,99.90
2023-04-27T07:37:19.779Z,99.90
2023-04-27T07:39:48.588Z,99.90
2023-04-27T07:42:15.948Z,99.90
2023-04-27T07:44:43.044Z,99.90
2023-04-27T07:47:10.561Z,99.90
2023-04-27T07:49:38.182Z,99.90
2023-04-27T07:52:05.386Z,99.90
2023-04-27T07:54:32.385Z,99.90
2023-04-27T07:56:59.367Z,99.90
2023-04-27T07:59:28.520Z,99.90
2023-04-27T08:02:04.089Z,99.90
2023-04-27T08:04:38.413Z,99.90
2023-04-27T08:07:06.136Z,99.90
2023-04-27T08:09:33.887Z,99.90
2023-04-27T08:12:02.605Z,99.90
2023-04-27T08:14:29.588Z,99.90
2023-04-27T08:16:56.692Z,99.90
2023-04-27T08:19:23.831Z,99.90
2023-04-27T08:21:50.902Z,99.90
2023-04-27T08:24:18.252Z,99.90
2023-04-27T08:26:45.627Z,99.90
2023-04-27T08:29:26.397Z,99.90
2023-04-27T08:31:56.622Z,99.90
2023-04-27T08:34:24.137Z,99.90
2023-04-27T08:36:51.463Z,99.90
2023-04-27T08:39:18.602Z,99.90
2023-04-27T08:41:46.180Z,99.90
2023-04-27T08:44:13.167Z,99.90
2023-04-27T08:46:40.837Z,99.90
2023-04-27T08:49:08.135Z,99.90
2023-04-27T08:51:35.433Z,99.90
2023-04-27T08:54:02.565Z,99.90
2023-04-27T08:56:29.841Z,99.90
2023-04-27T08:58:56.994Z,99.90
2023-04-27T09:01:24.351Z,99.90
2023-04-27T09:04:02.154Z,99.90
2023-04-27T09:06:32.945Z,99.90
2023-04-27T09:09:00.224Z,99.90
2023-04-27T09:11:34.771Z,99.90
2023-04-27T09:14:03.096Z,99.90
2023-04-27T09:16:30.419Z,99.90
2023-04-27T09:18:57.856Z,99.90
2023-04-27T09:21:25.584Z,99.90
2023-04-27T09:23:52.678Z,99.90
2023-04-27T09:26:26.812Z,99.90
2023-04-27T09:28:54.455Z,99.90
2023-04-27T09:31:21.461Z,99.90
2023-04-27T09:33:54.132Z,99.90
2023-04-27T09:36:21.168Z,99.90
2023-04-27T09:38:48.139Z,99.90
2023-04-27T09:41:15.279Z,99.90
2023-04-27T09:43:44.344Z,99.90
2023-04-27T09:46:12.226Z,99.90
2023-04-27T09:48:39.346Z,99.90
2023-04-27T09:51:06.854Z,99.90
2023-04-27T09:53:44.657Z,99.90
2023-04-27T09:56:16.300Z,99.90
2023-04-27T09:58:48.051Z,99.90
2023-04-27T10:01:24.030Z,99.90
2023-04-27T10:03:51.262Z,99.90
2023-04-27T10:06:37.494Z,99.90
2023-04-27T10:09:08.134Z,99.90
2023-04-27T10:11:42.160Z,99.90
2023-04-27T10:14:10.860Z,99.90
2023-04-27T10:16:54.226Z,99.90
2023-04-27T10:19:21.701Z,99.90
2023-04-27T10:21:57.118Z,99.90
2023-04-27T10:24:46.533Z,99.90
2023-04-27T10:27:15.914Z,99.90
2023-04-27T10:29:43.243Z,99.90
2023-04-27T10:32:10.365Z,99.90
2023-04-27T10:34:37.787Z,99.90
2023-04-27T10:37:08.655Z,99.90
2023-04-27T10:39:47.068Z,99.90
2023-04-27T10:42:14.547Z,99.90
2023-04-27T10:44:41.576Z,99.90
2023-04-27T10:47:15.321Z,99.90
2023-04-27T10:49:42.354Z,99.90
2023-04-27T10:52:09.323Z,99.90
2023-04-27T10:54:37.368Z,99.90
2023-04-27T10:57:08.098Z,99.90
2023-04-27T10:59:35.833Z,99.90
2023-04-27T11:02:04.149Z,99.90
2023-04-27T11:04:38.487Z,99.90
2023-04-27T11:07:06.127Z,99.90
2023-04-27T11:09:33.186Z,99.90
2023-04-27T11:12:03.568Z,99.90
2023-04-27T11:14:30.834Z,99.90
2023-04-27T11:16:58.958Z,99.90
2023-04-27T11:19:26.009Z,99.90
2023-04-27T11:21:53.227Z,99.90
2023-04-27T11:24:20.209Z,99.90
2023-04-27T11:26:51.184Z,99.90
2023-04-27T11:29:18.259Z,99.90
2023-04-27T11:31:49.223Z,99.90
2023-04-27T11:34:23.097Z,99.90
2023-04-27T11:37:18.522Z,99.90
2023-04-27T11:39:48.884Z,99.90
2023-04-27T11:42:22.688Z,99.90
2023-04-27T11:44:56.581Z,99.90
2023-04-27T11:47:24.981Z,99.90
2023-04-27T11:49:52.817Z,99.90
2023-04-27T11:52:19.879Z,99.90
2023-04-27T11:54:50.844Z,99.90
2023-04-27T11:57:18.163Z,99.90
2023-04-27T11:59:49.728Z,99.90
2023-04-27T12:02:18.110Z,99.90
2023-04-27T12:04:45.402Z,99.90
2023-04-27T12:07:13.283Z,99.90
2023-04-27T12:09:40.629Z,99.90
2023-04-27T12:12:07.793Z,99.90
2023-04-27T12:14:34.771Z,99.90
2023-04-27T12:17:02.009Z,99.90
2023-04-27T12:19:30.325Z,99.90
2023-04-27T12:21:58.036Z,99.90
2023-04-27T12:24:27.452Z,99.90
2023-04-27T12:26:56.756Z,99.70
2023-04-27T12:29:24.438Z,99.90
2023-04-27T12:31:51.788Z,99.90
2023-04-27T12:34:19.262Z,99.90
2023-04-27T12:36:46.964Z,99.90
2023-04-27T12:39:14.953Z,99.90
2023-04-27T12:41:44.289Z,98.30
2023-04-27T12:44:12.634Z,98.80
2023-04-27T12:46:40.588Z,99.90
2023-04-27T12:49:07.817Z,99.60
2023-04-27T12:51:36.927Z,98.90
2023-04-27T12:54:08.833Z,99.90
2023-04-27T12:56:38.361Z,99.90
2023-04-27T12:59:10.201Z,99.60
2023-04-27T13:01:38.681Z,98.50
2023-04-27T13:04:08.263Z,99.90
2023-04-27T13:06:38.439Z,99.90
2023-04-27T13:09:08.350Z,99.90
2023-04-27T13:11:42.831Z,99.60
2023-04-27T13:14:13.145Z,99.90
2023-04-27T13:16:41.099Z,99.30
2023-04-27T13:19:08.859Z,98.40
2023-04-27T13:21:36.001Z,98.50
2023-04-27T13:24:11.702Z,98.60
2023-04-27T13:26:41.501Z,98.70
2023-04-27T13:29:09.035Z,97.30
2023-04-27T13:31:41.955Z,95.70
2023-04-27T13:34:12.355Z,97.70
2023-04-27T13:36:39.993Z,95.50
2023-04-27T13:39:07.923Z,95.30
2023-04-27T13:41:35.750Z,95.50
2023-04-27T13:44:02.843Z,96.20
2023-04-27T13:46:29.915Z,95.90
2023-04-27T13:48:57.310Z,95.70
2023-04-27T13:51:27.646Z,97.80
2023-04-27T13:53:54.896Z,96.80
2023-04-27T13:56:22.460Z,97.20
2023-04-27T13:58:50.007Z,96.60
2023-04-27T14:01:17.049Z,96.80
2023-04-27T14:03:44.182Z,97.30
2023-04-27T14:06:11.499Z,96.00
2023-04-27T14:08:38.501Z,97.50
2023-04-27T14:11:08.425Z,97.70
2023-04-27T14:13:35.782Z,97.80
2023-04-27T14:16:03.106Z,98.00
2023-04-27T14:18:32.646Z,95.80
2023-04-27T14:21:00.120Z,97.50
2023-04-27T14:23:27.144Z,97.80
2023-04-27T14:25:54.391Z,97.90
2023-04-27T14:28:24.248Z,97.80
2023-04-27T14:30:51.725Z,98.10
2023-04-27T14:33:18.956Z,97.70
2023-04-27T14:35:46.178Z,97.20
2023-04-27T14:38:13.216Z,96.80
2023-04-27T14:40:41.159Z,97.20
2023-04-27T14:43:08.317Z,97.20
2023-04-27T14:45:47.762Z,97.10
2023-04-27T14:48:18.702Z,96.70
2023-04-27T14:50:45.865Z,97.60
2023-04-27T14:53:13.222Z,98.00
2023-04-27T14:55:41.421Z,97.50
2023-04-27T14:58:08.458Z,98.00
2023-04-27T15:00:35.909Z,97.50
2023-04-27T15:03:03.306Z,97.90
2023-04-27T15:05:30.441Z,97.80
2023-04-27T15:07:57.852Z,96.80
2023-04-27T15:10:24.869Z,95.70
2023-04-27T15:12:52.111Z,96.60
2023-04-27T15:15:19.152Z,97.10
2023-04-27T15:17:46.552Z,97.10
2023-04-27T15:20:14.177Z,97.80
2023-04-27T15:22:41.237Z,96.60
2023-04-27T15:25:08.751Z,96.80
2023-04-27T15:27:36.012Z,97.60
2023-04-27T15:30:06.235Z,97.40
2023-04-27T15:32:33.432Z,97.60
2023-04-27T15:35:00.905Z,98.40
2023-04-27T15:37:28.197Z,97.50
2023-04-27T15:39:55.603Z,97.60
2023-04-27T15:42:23.143Z,97.80
2023-04-27T15:44:51.057Z,98.20
2023-04-27T15:47:18.324Z,98.20
2023-04-27T15:49:56.165Z,98.70
2023-04-27T15:52:25.895Z,98.10
2023-04-27T15:54:53.095Z,98.30
2023-04-27T15:57:20.348Z,97.70
2023-04-27T15:59:47.823Z,97.70
2023-04-27T16:02:15.274Z,97.90
2023-04-27T16:04:42.540Z,97.90
2023-04-27T16:07:09.932Z,98.30
2023-04-27T16:09:37.035Z,98.90
2023-04-27T16:12:04.146Z,98.90
2023-04-27T16:14:31.176Z,98.40
2023-04-27T16:17:02.117Z,96.80
2023-04-27T16:19:29.187Z,96.50
2023-04-27T16:21:56.272Z,96.80
2023-04-27T16:24:24.960Z,97.00
2023-04-27T16:26:52.261Z,98.00
2023-04-27T16:29:19.471Z,98.30
2023-04-27T16:31:49.248Z,98.50
2023-04-27T16:34:20.712Z,98.80
2023-04-27T16:36:48.635Z,99.40
2023-04-27T16:39:18.856Z,99.00
2023-04-27T16:41:49.767Z,99.00
2023-04-27T16:44:21.120Z,99.10
2023-04-27T16:46:50.501Z,97.40
2023-04-27T16:49:20.233Z,97.20
2023-04-27T16:51:50.459Z,97.90
2023-04-27T16:54:21.146Z,98.40
2023-04-27T16:56:50.199Z,98.90
2023-04-27T16:59:17.382Z,97.40
2023-04-27T17:01:48.983Z,97.60
2023-04-27T17:04:16.285Z,97.70
2023-04-27T17:06:51.209Z,97.40
2023-04-27T17:09:19.593Z,97.60
2023-04-27T17:11:46.687Z,98.00
2023-04-27T17:14:14.107Z,97.00
2023-04-27T17:16:41.126Z,98.10
2023-04-27T17:19:08.120Z,97.80
2023-04-27T17:21:35.137Z,97.90
2023-04-27T17:24:02.751Z,97.10
2023-04-27T17:26:29.833Z,97.50
2023-04-27T17:28:59.854Z,98.00
2023-04-27T17:31:27.155Z,98.40
2023-04-27T17:33:54.181Z,98.60
2023-04-27T17:36:21.270Z,98.80
2023-04-27T17:38:48.748Z,99.10
2023-04-27T17:41:15.787Z,99.20
2023-04-27T17:43:42.868Z,99.10
2023-04-27T17:46:09.974Z,98.10
2023-04-27T17:48:37.342Z,97.70
2023-04-27T17:51:04.855Z,97.90
2023-04-27T17:53:31.886Z,97.70
2023-04-27T17:55:59.284Z,98.10
2023-04-27T17:58:28.023Z,98.60
2023-04-27T18:00:55.283Z,98.90
2023-04-27T18:03:22.489Z,99.20
2023-04-27T18:05:49.699Z,99.30
2023-04-27T18:08:16.695Z,99.40
2023-04-27T18:10:43.708Z,99.60
2023-04-27T18:13:10.742Z,99.90
2023-04-27T18:15:37.970Z,99.90
2023-04-27T18:18:05.019Z,99.90
2023-04-27T18:20:31.997Z,99.90
2023-04-27T18:22:58.962Z,99.90
2023-04-27T18:25:26.079Z,99.90
2023-04-27T18:27:55.630Z,99.90
2023-04-27T18:30:22.905Z,99.90
2023-04-27T18:32:50.005Z,99.90
2023-04-27T18:35:16.996Z,99.90
2023-04-27T18:37:48.102Z,99.90
2023-04-27T18:40:16.336Z,99.90
2023-04-27T18:42:43.373Z,99.90
2023-04-27T18:45:10.463Z,99.90
2023-04-27T18:47:37.474Z,99.90
2023-04-27T18:50:04.709Z,99.90
2023-04-27T18:52:31.772Z,99.90
2023-04-27T18:54:58.835Z,99.90
2023-04-27T18:57:26.476Z,99.90
2023-04-27T18:59:53.448Z,99.90
2023-04-27T19:02:20.516Z,99.90
2023-04-27T19:04:52.846Z,99.90
2023-04-27T19:07:28.869Z,99.90
2023-04-27T19:09:55.960Z,99.90
2023-04-27T19:12:23.405Z,99.90
2023-04-27T19:14:51.054Z,99.90
2023-04-27T19:17:18.096Z,99.90
2023-04-27T19:19:48.369Z,99.90
2023-04-27T19:22:15.444Z,99.90
2023-04-27T19:24:42.514Z,99.90
2023-04-27T19:27:11.427Z,99.90
2023-04-27T19:29:48.747Z,99.90
2023-04-27T19:32:16.304Z,99.90
2023-04-27T19:34:43.276Z,99.90
2023-04-27T19:37:10.380Z,99.90
2023-04-27T19:39:37.374Z,99.90
2023-04-27T19:42:04.445Z,99.90
2023-04-27T19:44:31.478Z,99.90
2023-04-27T19:46:58.483Z,99.90
2023-04-27T19:49:25.528Z,99.90
2023-04-27T19:51:52.636Z,99.90
2023-04-27T19:54:19.679Z,99.90
2023-04-27T19:56:46.646Z,99.90
2023-04-27T19:59:13.622Z,99.90
2023-04-27T20:01:40.952Z,99.90
2023-04-27T20:04:08.252Z,99.90
2023-04-27T20:06:35.667Z,99.90
2023-04-27T20:09:02.627Z,99.90
2023-04-27T20:11:29.645Z,99.90
2023-04-27T20:13:56.604Z,99.90
2023-04-27T20:16:25.429Z,99.90
2023-04-27T20:18:52.572Z,99.90
2023-04-27T20:21:21.329Z,99.90
2023-04-27T20:23:48.670Z,99.90
2023-04-27T20:26:15.636Z,99.90
2023-04-27T20:28:42.733Z,99.90
2023-04-27T20:31:09.881Z,99.90
2023-04-27T20:33:36.881Z,99.90
2023-04-27T20:36:14.150Z,99.90
2023-04-27T20:38:44.164Z,99.90
2023-04-27T20:41:12.273Z,99.90
2023-04-27T20:43:39.944Z,99.90
2023-04-27T20:46:07.419Z,99.90
2023-04-27T20:48:36.560Z,99.90
2023-04-27T20:51:03.903Z,99.90
2023-04-27T20:53:31.045Z,99.90
2023-04-27T20:55:58.135Z,99.90
2023-04-27T20:58:25.672Z,99.90
2023-04-27T21:00:52.952Z,99.90
2023-04-27T21:03:20.183Z,99.90
2023-04-27T21:05:48.940Z,99.90
2023-04-27T21:08:16.783Z,99.90
2023-04-27T21:10:44.087Z,99.90
2023-04-27T21:13:11.108Z,99.90
2023-04-27T21:15:38.266Z,99.90
2023-04-27T21:20:33.461Z,99.90
2023-04-27T21:23:00.538Z,99.90
2023-04-27T21:25:28.897Z,99.90
2023-04-27T21:27:55.947Z,99.90
2023-04-27T21:30:22.937Z,99.90
2023-04-27T21:32:50.048Z,99.90
2023-04-27T21:35:17.139Z,99.90
2023-04-27T21:37:46.287Z,99.90
2023-04-27T21:40:13.406Z,99.90
2023-04-27T21:42:40.901Z,99.90
2023-04-27T21:45:08.292Z,99.90
2023-04-27T21:47:35.562Z,99.90
2023-04-27T21:50:03.190Z,99.90
2023-04-27T21:52:30.302Z,99.90
2023-04-27T21:54:57.350Z,99.90
2023-04-27T21:57:24.339Z,99.90
2023-04-27T21:59:51.299Z,99.90
2023-04-27T22:02:18.323Z,99.90
2023-04-27T22:04:45.469Z,99.90
2023-04-27T22:07:12.662Z,99.90
2023-04-27T22:09:39.641Z,99.90
2023-04-27T22:12:06.925Z,99.90
2023-04-27T22:14:33.929Z,99.90
2023-04-27T22:17:01.102Z,99.90
2023-04-27T22:19:28.517Z,99.90
2023-04-27T22:21:55.653Z,99.90
2023-04-27T22:24:22.878Z,99.90
2023-04-27T22:26:49.866Z,99.90
2023-04-27T22:29:16.930Z,99.90
2023-04-27T22:31:44.676Z,99.90
2023-04-27T22:34:11.958Z,99.90
2023-04-27T22:36:38.931Z,99.90
2023-04-27T22:39:07.035Z,99.90
2023-04-27T22:41:34.278Z,99.90
2023-04-27T22:44:01.353Z,99.90
2023-04-27T22:46:28.392Z,99.90
2023-04-27T22:48:55.421Z,99.90
2023-04-27T22:51:23.611Z,99.90
2023-04-27T22:53:50.659Z,99.90
2023-04-27T22:56:17.708Z,99.90
2023-04-27T22:58:44.691Z,99.90
2023-04-27T23:01:11.762Z,99.90
2023-04-27T23:03:39.036Z,99.90
2023-04-27T23:06:07.504Z,99.90
2023-04-27T23:08:34.479Z,99.90
2023-04-27T23:11:02.657Z,99.90
2023-04-27T23:13:29.627Z,99.90
2023-04-27T23:15:56.675Z,99.90
2023-04-27T23:18:23.713Z,99.90
2023-04-27T23:20:52.330Z,99.90
2023-04-27T23:23:19.295Z,99.90
2023-04-27T23:25:47.572Z,99.90
2023-04-27T23:28:14.598Z,99.90
2023-04-27T23:30:41.672Z,99.90
2023-04-27T23:33:08.739Z,99.90
2023-04-27T23:35:35.719Z,99.90
2023-04-27T23:38:02.670Z,99.90
2023-04-27T23:40:29.679Z,99.90
2023-04-27T23:42:57.063Z,99.90
2023-04-27T23:45:24.086Z,99.90
2023-04-27T23:47:51.232Z,99.90
2023-04-27T23:50:18.349Z,99.90
2023-04-27T23:52:45.391Z,99.90
2023-04-27T23:55:12.480Z,99.90
2023-04-27T23:57:39.439Z,99.90
